Rangoon, Myanmar

1:45 PM +0630 on 三月 29, 2017 (GMT +0630)
Mayangone, Yangon | | Change Station

高度 46 ft 16.87 °N, 96.12 °E | Updated 49 seconds ago

晴
95.7 °F
体感気温 91 °F
2.5
風 変数 風 から 南南東
Gusts 2.5 Mph

今日
高い -- | 低 -- °F
--% 降水確率
昨日
高い -- | 低 -- °F
Precip. -- インチ
気圧 29.86 インチ
視程 5.6 マイル
体感気温(暑さ) 91 °F
露点温度 42 °F
湿度 16%
降水 0.00 インチ
積雪深 利用不可。
6:02 AM 6:17 PM
新月, 2% visible
METAR VYYY 290700Z 22010KT 9000 NSC 37/09 Q1011
気圧 29.86 インチ
視程 5.6 マイル
体感気温(暑さ) 91 °F
露点温度 42 °F
湿度 16%
降水 0.00 インチ
積雪深 利用不可。
6:02 AM 6:17 PM
新月, 2% visible
METAR VYYY 290700Z 22010KT 9000 NSC 37/09 Q1011

Get Severe Weather Alerts

Thanks for signing up!

Be on the lookout for a verification email in your inbox.

You'll start receiving the daily forecast at 8 AM.

×

10-Day Weather Forecast

No radar image for this location.
×

Almanac

天文

Mar. 29, 2017 入り
実時間
常用薄明
航海薄明
天文薄明
可視光の長さ
可照時間
Tomorrow will be .
, % of the Moon is Illuminated

今日の極値

Country Highs Country Lows

Community

WunderPhotos

Upload Photos

1,962,540 写真がアップロードされました!

WunderBlog® & News

Nearby

空気品質

  空気品質 大気質指数 汚染物質
Not available.

積雪深

Station Depth 高度

地震活動

Distance Mag. Time & Date
Minimum magnitude displayed is 2.5.

地震活動

Distance Mag. Time & Date
Minimum magnitude displayed is 2.5.

沿岸の水温

地名 気温

Stations

最寄りの気象観測所

観測所位置 温度 体感気温(寒さ) 露点温度 湿度 Precip. 高度 更新日時 タイプする